sensor_id;sensor_type;location;lat;lon;timestamp;pressure;altitude;pressure_sealevel;temperature;humidity
3917;BME280;1973;50.518;7.318;2022-08-07T00:01:05;101870.03;;;14.57;94.84
3917;BME280;1973;50.518;7.318;2022-08-07T00:03:51;101868.75;;;14.53;94.44
3917;BME280;1973;50.518;7.318;2022-08-07T00:06:20;101870.06;;;14.51;94.20
3917;BME280;1973;50.518;7.318;2022-08-07T00:08:59;101868.78;;;14.47;94.33
3917;BME280;1973;50.518;7.318;2022-08-07T00:11:43;101870.06;;;14.44;94.18
3917;BME280;1973;50.518;7.318;2022-08-07T00:14:21;101874.09;;;14.42;94.72
3917;BME280;1973;50.518;7.318;2022-08-07T00:16:57;101873.47;;;14.40;94.91
3917;BME280;1973;50.518;7.318;2022-08-07T00:19:24;101870.50;;;14.35;96.16
3917;BME280;1973;50.518;7.318;2022-08-07T00:21:59;101863.63;;;14.31;96.71
3917;BME280;1973;50.518;7.318;2022-08-07T00:24:29;101866.63;;;14.29;96.69
3917;BME280;1973;50.518;7.318;2022-08-07T00:26:57;101861.53;;;14.26;96.94
3917;BME280;1973;50.518;7.318;2022-08-07T00:29:34;101860.00;;;14.24;96.63
3917;BME280;1973;50.518;7.318;2022-08-07T00:32:03;101857.47;;;14.22;97.21
3917;BME280;1973;50.518;7.318;2022-08-07T00:34:32;101852.34;;;14.19;97.36
3917;BME280;1973;50.518;7.318;2022-08-07T00:37:01;101850.84;;;14.17;97.83
3917;BME280;1973;50.518;7.318;2022-08-07T00:39:30;101855.53;;;14.16;97.97
3917;BME280;1973;50.518;7.318;2022-08-07T00:41:58;101849.56;;;14.12;98.53
3917;BME280;1973;50.518;7.318;2022-08-07T00:44:30;101854.25;;;14.05;99.13
3917;BME280;1973;50.518;7.318;2022-08-07T00:46:58;101859.81;;;14.05;98.91
3917;BME280;1973;50.518;7.318;2022-08-07T00:49:25;101854.69;;;14.02;99.24
3917;BME280;1973;50.518;7.318;2022-08-07T00:52:11;101844.06;;;13.99;100.00
3917;BME280;1973;50.518;7.318;2022-08-07T00:54:43;101852.78;;;13.96;99.45
3917;BME280;1973;50.518;7.318;2022-08-07T00:57:09;101848.31;;;13.95;99.98
3917;BME280;1973;50.518;7.318;2022-08-07T00:59:37;101843.63;;;13.89;100.00
3917;BME280;1973;50.518;7.318;2022-08-07T01:02:05;101843.81;;;13.88;100.00
3917;BME280;1973;50.518;7.318;2022-08-07T01:04:52;101838.91;;;13.83;100.00
3917;BME280;1973;50.518;7.318;2022-08-07T01:07:23;101830.63;;;13.83;100.00
3917;BME280;1973;50.518;7.318;2022-08-07T01:09:53;101826.56;;;13.79;100.00
3917;BME280;1973;50.518;7.318;2022-08-07T01:12:33;101836.78;;;13.72;100.00
3917;BME280;1973;50.518;7.318;2022-08-07T01:15:01;101829.94;;;13.68;100.00
3917;BME280;1973;50.518;7.318;2022-08-07T01:17:30;101836.78;;;13.65;100.00
3917;BME280;1973;50.518;7.318;2022-08-07T01:20:03;101834.19;;;13.64;100.00
3917;BME280;1973;50.518;7.318;2022-08-07T01:22:31;101838.44;;;13.60;100.00
3917;BME280;1973;50.518;7.318;2022-08-07T01:24:58;101832.47;;;13.56;100.00
3917;BME280;1973;50.518;7.318;2022-08-07T01:27:27;101841.00;;;13.55;100.00
3917;BME280;1973;50.518;7.318;2022-08-07T01:29:58;101829.50;;;13.51;100.00
3917;BME280;1973;50.518;7.318;2022-08-07T01:32:26;101841.00;;;13.48;100.00
3917;BME280;1973;50.518;7.318;2022-08-07T01:34:54;101828.84;;;13.43;100.00
3917;BME280;1973;50.518;7.318;2022-08-07T01:37:22;101842.69;;;13.43;100.00
3917;BME280;1973;50.518;7.318;2022-08-07T01:39:50;101837.16;;;13.43;100.00
3917;BME280;1973;50.518;7.318;2022-08-07T01:42:17;101840.13;;;13.41;100.00
3917;BME280;1973;50.518;7.318;2022-08-07T01:45:04;101845.88;;;13.40;100.00
3917;BME280;1973;50.518;7.318;2022-08-07T01:47:41;101845.19;;;13.38;100.00
3917;BME280;1973;50.518;7.318;2022-08-07T01:50:28;101847.34;;;13.36;100.00
3917;BME280;1973;50.518;7.318;2022-08-07T01:52:57;101842.22;;;13.33;100.00
3917;BME280;1973;50.518;7.318;2022-08-07T01:55:28;101842.66;;;13.30;100.00
3917;BME280;1973;50.518;7.318;2022-08-07T01:57:59;101841.34;;;13.26;100.00
3917;BME280;1973;50.518;7.318;2022-08-07T02:00:54;101849.41;;;13.21;100.00
3917;BME280;1973;50.518;7.318;2022-08-07T02:03:46;101851.94;;;13.15;100.00
3917;BME280;1973;50.518;7.318;2022-08-07T02:06:17;101839.97;;;13.08;100.00
3917;BME280;1973;50.518;7.318;2022-08-07T02:09:00;101840.81;;;13.02;100.00
3917;BME280;1973;50.518;7.318;2022-08-07T02:11:37;101846.31;;;13.02;100.00
3917;BME280;1973;50.518;7.318;2022-08-07T02:14:25;101845.69;;;13.00;100.00
3917;BME280;1973;50.518;7.318;2022-08-07T02:17:07;101848.84;;;12.97;100.00
3917;BME280;1973;50.518;7.318;2022-08-07T02:19:38;101839.06;;;12.95;100.00
3917;BME280;1973;50.518;7.318;2022-08-07T02:22:29;101844.16;;;12.91;100.00
3917;BME280;1973;50.518;7.318;2022-08-07T02:24:56;101845.63;;;12.87;100.00
3917;BME280;1973;50.518;7.318;2022-08-07T02:27:25;101842.84;;;12.87;100.00
3917;BME280;1973;50.518;7.318;2022-08-07T02:30:01;101852.59;;;12.83;100.00
3917;BME280;1973;50.518;7.318;2022-08-07T02:32:34;101846.84;;;12.78;100.00
3917;BME280;1973;50.518;7.318;2022-08-07T02:35:24;101846.59;;;12.73;100.00
3917;BME280;1973;50.518;7.318;2022-08-07T02:38:12;101845.50;;;12.67;100.00
3917;BME280;1973;50.518;7.318;2022-08-07T02:40:41;101844.00;;;12.65;100.00
3917;BME280;1973;50.518;7.318;2022-08-07T02:43:13;101846.53;;;12.60;100.00
3917;BME280;1973;50.518;7.318;2022-08-07T02:45:41;101837.59;;;12.58;100.00
3917;BME280;1973;50.518;7.318;2022-08-07T02:48:26;101836.09;;;12.55;100.00
3917;BME280;1973;50.518;7.318;2022-08-07T02:50:54;101829.72;;;12.55;100.00
3917;BME280;1973;50.518;7.318;2022-08-07T02:53:27;101832.88;;;12.52;100.00
3917;BME280;1973;50.518;7.318;2022-08-07T02:56:04;101822.84;;;12.44;100.00
3917;BME280;1973;50.518;7.318;2022-08-07T02:58:43;101828.13;;;12.39;100.00
3917;BME280;1973;50.518;7.318;2022-08-07T03:01:14;101826.63;;;12.37;100.00
3917;BME280;1973;50.518;7.318;2022-08-07T03:04:01;101831.88;;;12.32;100.00
3917;BME280;1973;50.518;7.318;2022-08-07T03:06:33;101833.59;;;12.33;100.00
3917;BME280;1973;50.518;7.318;2022-08-07T03:09:05;101828.09;;;12.33;100.00
3917;BME280;1973;50.518;7.318;2022-08-07T03:11:37;101831.03;;;12.31;100.00
3917;BME280;1973;50.518;7.318;2022-08-07T03:14:23;101835.91;;;12.29;100.00
3917;BME280;1973;50.518;7.318;2022-08-07T03:16:50;101832.47;;;12.27;100.00
3917;BME280;1973;50.518;7.318;2022-08-07T03:19:18;101825.47;;;12.25;100.00
3917;BME280;1973;50.518;7.318;2022-08-07T03:21:45;101827.59;;;12.23;100.00
3917;BME280;1973;50.518;7.318;2022-08-07T03:24:16;101828.19;;;12.18;100.00
3917;BME280;1973;50.518;7.318;2022-08-07T03:26:55;101825.16;;;12.13;100.00
3917;BME280;1973;50.518;7.318;2022-08-07T03:29:28;101827.47;;;12.09;100.00
3917;BME280;1973;50.518;7.318;2022-08-07T03:32:04;101827.69;;;12.08;100.00
3917;BME280;1973;50.518;7.318;2022-08-07T03:34:32;101820.84;;;12.04;100.00
3917;BME280;1973;50.518;7.318;2022-08-07T03:37:06;101819.31;;;12.01;100.00
3917;BME280;1973;50.518;7.318;2022-08-07T03:39:38;101819.72;;;11.98;100.00
3917;BME280;1973;50.518;7.318;2022-08-07T03:42:25;101817.38;;;11.95;100.00
3917;BME280;1973;50.518;7.318;2022-08-07T03:44:52;101818.44;;;11.94;100.00
3917;BME280;1973;50.518;7.318;2022-08-07T03:47:24;101822.63;;;11.90;100.00
3917;BME280;1973;50.518;7.318;2022-08-07T03:49:53;101826.47;;;11.89;100.00
3917;BME280;1973;50.518;7.318;2022-08-07T03:52:24;101827.31;;;11.90;100.00
3917;BME280;1973;50.518;7.318;2022-08-07T03:54:57;101827.69;;;11.87;100.00
3917;BME280;1973;50.518;7.318;2022-08-07T03:57:32;101832.56;;;11.85;100.00
3917;BME280;1973;50.518;7.318;2022-08-07T04:00:19;101829.38;;;11.81;100.00
3917;BME280;1973;50.518;7.318;2022-08-07T04:02:57;101828.03;;;11.77;100.00
3917;BME280;1973;50.518;7.318;2022-08-07T04:05:24;101834.81;;;11.75;100.00
3917;BME280;1973;50.518;7.318;2022-08-07T04:08:12;101836.91;;;11.73;100.00
3917;BME280;1973;50.518;7.318;2022-08-07T04:10:43;101841.94;;;11.69;100.00
3917;BME280;1973;50.518;7.318;2022-08-07T04:13:32;101839.41;;;11.67;100.00
3917;BME280;1973;50.518;7.318;2022-08-07T04:16:19;101844.06;;;11.67;100.00
3917;BME280;1973;50.518;7.318;2022-08-07T04:19:00;101842.75;;;11.63;100.00
3917;BME280;1973;50.518;7.318;2022-08-07T04:21:40;101839.31;;;11.61;100.00
3917;BME280;1973;50.518;7.318;2022-08-07T04:24:27;101833.16;;;11.59;100.00
3917;BME280;1973;50.518;7.318;2022-08-07T04:26:59;101837.97;;;11.57;100.00
3917;BME280;1973;50.518;7.318;2022-08-07T04:29:29;101840.09;;;11.55;100.00
3917;BME280;1973;50.518;7.318;2022-08-07T04:32:16;101840.50;;;11.52;100.00
3917;BME280;1973;50.518;7.318;2022-08-07T04:34:53;101844.97;;;11.53;100.00
3917;BME280;1973;50.518;7.318;2022-08-07T04:37:20;101840.09;;;11.55;100.00
3917;BME280;1973;50.518;7.318;2022-08-07T04:39:49;101847.13;;;11.57;100.00
3917;BME280;1973;50.518;7.318;2022-08-07T04:42:16;101858.44;;;11.62;100.00
3917;BME280;1973;50.518;7.318;2022-08-07T04:44:42;101857.84;;;11.67;100.00
3917;BME280;1973;50.518;7.318;2022-08-07T04:47:36;101856.78;;;11.68;100.00
3917;BME280;1973;50.518;7.318;2022-08-07T04:50:40;101861.06;;;11.70;100.00
3917;BME280;1973;50.518;7.318;2022-08-07T04:53:33;101857.84;;;11.67;100.00
3917;BME280;1973;50.518;7.318;2022-08-07T04:56:46;101862.69;;;11.65;100.00
3917;BME280;1973;50.518;7.318;2022-08-07T04:59:57;101862.69;;;11.65;100.00
3917;BME280;1973;50.518;7.318;2022-08-07T05:02:58;101855.50;;;11.64;100.00
3917;BME280;1973;50.518;7.318;2022-08-07T05:05:47;101857.16;;;11.65;100.00
3917;BME280;1973;50.518;7.318;2022-08-07T05:08:43;101869.91;;;11.66;100.00
3917;BME280;1973;50.518;7.318;2022-08-07T05:11:37;101872.88;;;11.64;100.00
3917;BME280;1973;50.518;7.318;2022-08-07T05:14:31;101876.31;;;11.66;100.00
3917;BME280;1973;50.518;7.318;2022-08-07T05:17:20;101873.31;;;11.68;100.00
3917;BME280;1973;50.518;7.318;2022-08-07T05:20:11;101877.81;;;11.69;100.00
3917;BME280;1973;50.518;7.318;2022-08-07T05:22:40;101879.16;;;11.73;100.00
3917;BME280;1973;50.518;7.318;2022-08-07T05:25:09;101875.34;;;11.74;100.00
3917;BME280;1973;50.518;7.318;2022-08-07T05:27:57;101876.84;;;11.77;100.00
3917;BME280;1973;50.518;7.318;2022-08-07T05:30:45;101874.78;;;11.79;100.00
3917;BME280;1973;50.518;7.318;2022-08-07T05:33:13;101880.75;;;11.82;100.00
3917;BME280;1973;50.518;7.318;2022-08-07T05:35:44;101880.34;;;11.85;100.00
3917;BME280;1973;50.518;7.318;2022-08-07T05:38:13;101873.56;;;11.88;100.00
3917;BME280;1973;50.518;7.318;2022-08-07T05:41:01;101884.66;;;11.94;100.00
3917;BME280;1973;50.518;7.318;2022-08-07T05:43:38;101883.03;;;12.00;100.00
3917;BME280;1973;50.518;7.318;2022-08-07T05:46:26;101877.56;;;12.06;100.00
3917;BME280;1973;50.518;7.318;2022-08-07T05:48:55;101879.13;;;12.15;100.00
3917;BME280;1973;50.518;7.318;2022-08-07T05:51:24;101880.69;;;12.25;100.00
3917;BME280;1973;50.518;7.318;2022-08-07T05:53:57;101880.56;;;12.33;100.00
3917;BME280;1973;50.518;7.318;2022-08-07T05:56:45;101882.09;;;12.42;100.00
3917;BME280;1973;50.518;7.318;2022-08-07T05:59:18;101889.63;;;12.54;100.00
3917;BME280;1973;50.518;7.318;2022-08-07T06:01:46;101887.81;;;12.68;100.00
3917;BME280;1973;50.518;7.318;2022-08-07T06:04:17;101881.97;;;12.84;100.00
3917;BME280;1973;50.518;7.318;2022-08-07T06:06:45;101882.00;;;12.97;100.00
3917;BME280;1973;50.518;7.318;2022-08-07T06:09:21;101882.28;;;13.09;100.00
3917;BME280;1973;50.518;7.318;2022-08-07T06:12:08;101881.31;;;13.23;100.00
3917;BME280;1973;50.518;7.318;2022-08-07T06:14:37;101882.00;;;13.32;100.00
3917;BME280;1973;50.518;7.318;2022-08-07T06:17:05;101881.41;;;13.43;100.00
3917;BME280;1973;50.518;7.318;2022-08-07T06:19:33;101883.38;;;13.55;100.00
3917;BME280;1973;50.518;7.318;2022-08-07T06:22:20;101883.63;;;13.67;100.00
3917;BME280;1973;50.518;7.318;2022-08-07T06:24:52;101880.25;;;13.78;100.00
3917;BME280;1973;50.518;7.318;2022-08-07T06:27:26;101881.72;;;13.87;100.00
3917;BME280;1973;50.518;7.318;2022-08-07T06:30:12;101881.75;;;14.00;100.00
3917;BME280;1973;50.518;7.318;2022-08-07T06:32:59;101878.97;;;14.13;100.00
3917;BME280;1973;50.518;7.318;2022-08-07T06:35:26;101880.91;;;14.26;100.00
3917;BME280;1973;50.518;7.318;2022-08-07T06:38:11;101877.31;;;14.39;100.00
3917;BME280;1973;50.518;7.318;2022-08-07T06:40:49;101864.94;;;14.54;100.00
3917;BME280;1973;50.518;7.318;2022-08-07T06:43:20;101867.91;;;14.66;100.00
3917;BME280;1973;50.518;7.318;2022-08-07T06:45:49;101859.13;;;14.76;100.00
3917;BME280;1973;50.518;7.318;2022-08-07T06:48:17;101861.22;;;14.87;100.00
3917;BME280;1973;50.518;7.318;2022-08-07T06:50:51;101858.84;;;14.97;100.00
3917;BME280;1973;50.518;7.318;2022-08-07T06:53:19;101852.84;;;15.06;100.00
3917;BME280;1973;50.518;7.318;2022-08-07T06:56:09;101849.81;;;15.21;100.00
3917;BME280;1973;50.518;7.318;2022-08-07T06:58:41;101842.25;;;15.35;100.00
3917;BME280;1973;50.518;7.318;2022-08-07T07:01:30;101830.03;;;15.49;100.00
3917;BME280;1973;50.518;7.318;2022-08-07T07:04:10;101832.09;;;15.60;100.00
3917;BME280;1973;50.518;7.318;2022-08-07T07:06:57;101832.03;;;15.73;100.00
3917;BME280;1973;50.518;7.318;2022-08-07T07:09:29;101839.63;;;15.84;100.00
3917;BME280;1973;50.518;7.318;2022-08-07T07:15:03;101833.69;;;16.05;99.37
3917;BME280;1973;50.518;7.318;2022-08-07T07:20:27;101823.47;;;16.24;99.96
3917;BME280;1973;50.518;7.318;2022-08-07T07:22:57;101836.69;;;16.29;100.00
3917;BME280;1973;50.518;7.318;2022-08-07T07:25:44;101830.88;;;16.37;98.97
3917;BME280;1973;50.518;7.318;2022-08-07T07:31:44;101829.59;;;16.58;95.40
3917;BME280;1973;50.518;7.318;2022-08-07T07:34:17;101826.28;;;16.67;94.59
3917;BME280;1973;50.518;7.318;2022-08-07T07:36:47;101827.91;;;16.75;94.17
3917;BME280;1973;50.518;7.318;2022-08-07T07:39:21;101824.59;;;16.84;92.97
3917;BME280;1973;50.518;7.318;2022-08-07T07:42:01;101816.78;;;16.93;92.12
3917;BME280;1973;50.518;7.318;2022-08-07T07:44:42;101823.75;;;17.02;90.50
3917;BME280;1973;50.518;7.318;2022-08-07T07:47:15;101818.72;;;17.11;90.60
3917;BME280;1973;50.518;7.318;2022-08-07T07:49:51;101822.00;;;17.19;88.48
3917;BME280;1973;50.518;7.318;2022-08-07T07:52:40;101812.50;;;17.27;86.80
3917;BME280;1973;50.518;7.318;2022-08-07T07:55:08;101812.66;;;17.32;86.76
3917;BME280;1973;50.518;7.318;2022-08-07T07:57:39;101809.97;;;17.37;84.89
3917;BME280;1973;50.518;7.318;2022-08-07T08:00:19;101801.31;;;17.45;83.35
3917;BME280;1973;50.518;7.318;2022-08-07T08:03:04;101801.84;;;17.53;81.45
3917;BME280;1973;50.518;7.318;2022-08-07T08:05:39;101794.25;;;17.61;77.29
3917;BME280;1973;50.518;7.318;2022-08-07T08:08:22;101796.44;;;17.70;80.26
3917;BME280;1973;50.518;7.318;2022-08-07T08:11:03;101797.34;;;17.82;79.70
3917;BME280;1973;50.518;7.318;2022-08-07T08:13:35;101796.50;;;17.93;78.38
3917;BME280;1973;50.518;7.318;2022-08-07T08:16:25;101789.03;;;18.06;76.40
3917;BME280;1973;50.518;7.318;2022-08-07T08:18:57;101791.56;;;18.19;77.00
3917;BME280;1973;50.518;7.318;2022-08-07T08:21:36;101784.91;;;18.31;76.20
3917;BME280;1973;50.518;7.318;2022-08-07T08:24:31;101782.72;;;18.45;74.68
3917;BME280;1973;50.518;7.318;2022-08-07T08:27:40;101783.59;;;18.57;74.71
3917;BME280;1973;50.518;7.318;2022-08-07T08:30:23;101781.38;;;18.71;72.83
3917;BME280;1973;50.518;7.318;2022-08-07T08:32:57;101771.91;;;18.83;69.03
3917;BME280;1973;50.518;7.318;2022-08-07T08:35:26;101771.03;;;18.94;70.41
3917;BME280;1973;50.518;7.318;2022-08-07T08:38:02;101765.16;;;19.08;69.40
3917;BME280;1973;50.518;7.318;2022-08-07T08:40:35;101760.13;;;19.21;68.48
3917;BME280;1973;50.518;7.318;2022-08-07T08:43:16;101758.13;;;19.33;64.62
3917;BME280;1973;50.518;7.318;2022-08-07T08:45:48;101759.19;;;19.44;65.75
3917;BME280;1973;50.518;7.318;2022-08-07T08:48:45;101751.59;;;19.56;64.60
3917;BME280;1973;50.518;7.318;2022-08-07T08:51:36;101745.44;;;19.71;60.92
3917;BME280;1973;50.518;7.318;2022-08-07T08:54:37;101740.63;;;19.83;60.54
3917;BME280;1973;50.518;7.318;2022-08-07T08:57:13;101735.53;;;19.97;61.78
3917;BME280;1973;50.518;7.318;2022-08-07T08:59:48;101734.06;;;20.11;59.96
3917;BME280;1973;50.518;7.318;2022-08-07T09:11:13;101726.59;;;20.71;57.32
3917;BME280;1973;50.518;7.318;2022-08-07T09:14:15;101719.56;;;20.91;54.30
3917;BME280;1973;50.518;7.318;2022-08-07T09:19:54;101710.41;;;21.22;53.33
3917;BME280;1973;50.518;7.318;2022-08-07T09:25:59;101700.59;;;21.51;50.85
3917;BME280;1973;50.518;7.318;2022-08-07T09:28:30;101699.06;;;21.65;53.69
3917;BME280;1973;50.518;7.318;2022-08-07T09:31:39;101690.75;;;21.80;50.59
3917;BME280;1973;50.518;7.318;2022-08-07T09:34:28;101698.16;;;21.92;48.15
3917;BME280;1973;50.518;7.318;2022-08-07T09:37:14;101687.06;;;22.02;48.06
3917;BME280;1973;50.518;7.318;2022-08-07T09:40:15;101683.75;;;22.15;48.09
3917;BME280;1973;50.518;7.318;2022-08-07T09:42:59;101682.69;;;22.26;47.81
3917;BME280;1973;50.518;7.318;2022-08-07T09:45:41;101681.38;;;22.39;47.73
3917;BME280;1973;50.518;7.318;2022-08-07T09:48:50;101676.09;;;22.52;45.32
3917;BME280;1973;50.518;7.318;2022-08-07T09:51:54;101672.22;;;22.63;44.98
3917;BME280;1973;50.518;7.318;2022-08-07T09:55:00;101671.22;;;22.79;44.94
3917;BME280;1973;50.518;7.318;2022-08-07T09:57:49;101653.81;;;22.93;43.77
3917;BME280;1973;50.518;7.318;2022-08-07T10:00:21;101648.50;;;23.06;45.60
3917;BME280;1973;50.518;7.318;2022-08-07T10:03:12;101645.44;;;23.23;43.00
3917;BME280;1973;50.518;7.318;2022-08-07T10:09:06;101631.44;;;23.48;40.65
3917;BME280;1973;50.518;7.318;2022-08-07T10:11:50;101637.06;;;23.63;41.63
3917;BME280;1973;50.518;7.318;2022-08-07T10:14:46;101614.53;;;23.73;41.56
3917;BME280;1973;50.518;7.318;2022-08-07T10:21:01;101606.66;;;23.86;37.25
3917;BME280;1973;50.518;7.318;2022-08-07T10:23:58;101611.94;;;24.02;39.76
3917;BME280;1973;50.518;7.318;2022-08-07T10:27:09;101603.75;;;24.21;38.05
3917;BME280;1973;50.518;7.318;2022-08-07T10:32:37;101590.66;;;24.60;37.12
3917;BME280;1973;50.518;7.318;2022-08-07T10:41:18;101582.25;;;24.99;37.95
3917;BME280;1973;50.518;7.318;2022-08-07T10:47:32;101570.75;;;25.30;35.87
3917;BME280;1973;50.518;7.318;2022-08-07T10:50:22;101563.66;;;25.32;37.09
3917;BME280;1973;50.518;7.318;2022-08-07T10:55:55;101566.53;;;25.61;35.05
3917;BME280;1973;50.518;7.318;2022-08-07T10:58:55;101570.03;;;25.77;34.92
3917;BME280;1973;50.518;7.318;2022-08-07T11:01:44;101562.53;;;25.91;35.19
3917;BME280;1973;50.518;7.318;2022-08-07T11:04:45;101552.22;;;26.05;34.34
3917;BME280;1973;50.518;7.318;2022-08-07T11:07:21;101554.34;;;26.18;35.67
3917;BME280;1973;50.518;7.318;2022-08-07T11:10:17;101542.31;;;26.31;34.05
3917;BME280;1973;50.518;7.318;2022-08-07T11:12:57;101534.84;;;26.40;34.10
3917;BME280;1973;50.518;7.318;2022-08-07T11:15:31;101525.09;;;26.51;34.71
3917;BME280;1973;50.518;7.318;2022-08-07T11:18:13;101520.06;;;26.48;33.50
3917;BME280;1973;50.518;7.318;2022-08-07T11:26:24;101512.88;;;26.75;32.79
3917;BME280;1973;50.518;7.318;2022-08-07T11:29:15;101511.50;;;26.91;32.27
3917;BME280;1973;50.518;7.318;2022-08-07T11:34:40;101514.16;;;27.20;33.27
3917;BME280;1973;50.518;7.318;2022-08-07T11:40:32;101498.72;;;27.58;31.70
3917;BME280;1973;50.518;7.318;2022-08-07T11:46:59;101490.78;;;27.74;30.41
3917;BME280;1973;50.518;7.318;2022-08-07T11:56:13;101486.16;;;28.05;30.01
3917;BME280;1973;50.518;7.318;2022-08-07T12:01:58;101480.25;;;28.42;30.75
3917;BME280;1973;50.518;7.318;2022-08-07T12:04:37;101480.22;;;28.56;30.02
3917;BME280;1973;50.518;7.318;2022-08-07T12:07:23;101471.13;;;28.81;29.79
3917;BME280;1973;50.518;7.318;2022-08-07T12:09:58;101472.09;;;28.99;29.94
3917;BME280;1973;50.518;7.318;2022-08-07T12:12:43;101469.75;;;29.01;28.75
3917;BME280;1973;50.518;7.318;2022-08-07T12:15:15;101479.06;;;28.93;28.97
3917;BME280;1973;50.518;7.318;2022-08-07T12:18:11;101465.38;;;28.95;29.29
3917;BME280;1973;50.518;7.318;2022-08-07T12:21:15;101460.72;;;29.21;28.85
3917;BME280;1973;50.518;7.318;2022-08-07T12:24:26;101466.84;;;29.37;27.97
3917;BME280;1973;50.518;7.318;2022-08-07T12:27:09;101461.22;;;29.45;28.75
3917;BME280;1973;50.518;7.318;2022-08-07T12:32:37;101453.09;;;29.53;27.93
3917;BME280;1973;50.518;7.318;2022-08-07T12:35:11;101463.41;;;29.48;28.77
3917;BME280;1973;50.518;7.318;2022-08-07T12:37:40;101459.75;;;29.57;28.74
3917;BME280;1973;50.518;7.318;2022-08-07T12:40:31;101454.16;;;29.74;28.87
3917;BME280;1973;50.518;7.318;2022-08-07T12:43:19;101456.47;;;29.72;28.31
3917;BME280;1973;50.518;7.318;2022-08-07T12:49:20;101449.97;;;29.71;27.58
3917;BME280;1973;50.518;7.318;2022-08-07T12:52:26;101431.09;;;29.75;27.49
3917;BME280;1973;50.518;7.318;2022-08-07T12:55:11;101446.00;;;29.81;27.71
3917;BME280;1973;50.518;7.318;2022-08-07T12:57:45;101446.72;;;29.86;27.77
3917;BME280;1973;50.518;7.318;2022-08-07T13:00:39;101441.94;;;30.04;26.86
3917;BME280;1973;50.518;7.318;2022-08-07T13:03:34;101439.94;;;30.13;26.68
3917;BME280;1973;50.518;7.318;2022-08-07T13:21:08;101406.50;;;30.96;25.89
3917;BME280;1973;50.518;7.318;2022-08-07T13:26:41;101401.81;;;30.83;25.90
3917;BME280;1973;50.518;7.318;2022-08-07T13:29:15;101416.06;;;30.83;26.49
3917;BME280;1973;50.518;7.318;2022-08-07T13:35:00;101403.81;;;30.91;25.12
3917;BME280;1973;50.518;7.318;2022-08-07T13:40:27;101381.72;;;31.05;26.06
3917;BME280;1973;50.518;7.318;2022-08-07T13:43:10;101378.19;;;31.17;26.36
3917;BME280;1973;50.518;7.318;2022-08-07T13:45:40;101397.00;;;31.38;25.80
3917;BME280;1973;50.518;7.318;2022-08-07T13:48:30;101394.63;;;31.49;25.87
3917;BME280;1973;50.518;7.318;2022-08-07T13:51:05;101383.91;;;31.55;25.67
3917;BME280;1973;50.518;7.318;2022-08-07T13:53:54;101385.03;;;31.62;25.84
3917;BME280;1973;50.518;7.318;2022-08-07T13:56:28;101386.88;;;31.67;25.22
3917;BME280;1973;50.518;7.318;2022-08-07T13:59:30;101388.44;;;31.85;24.86
3917;BME280;1973;50.518;7.318;2022-08-07T14:02:08;101377.09;;;31.97;25.31
3917;BME280;1973;50.518;7.318;2022-08-07T14:04:49;101368.47;;;32.14;24.67
3917;BME280;1973;50.518;7.318;2022-08-07T14:07:22;101366.19;;;32.28;25.12
3917;BME280;1973;50.518;7.318;2022-08-07T14:09:56;101366.44;;;32.36;24.50
3917;BME280;1973;50.518;7.318;2022-08-07T14:12:58;101373.47;;;32.38;23.34
3917;BME280;1973;50.518;7.318;2022-08-07T14:15:37;101364.44;;;32.36;24.08
3917;BME280;1973;50.518;7.318;2022-08-07T14:18:30;101363.88;;;32.43;23.95
3917;BME280;1973;50.518;7.318;2022-08-07T14:21:06;101354.56;;;32.33;24.29
3917;BME280;1973;50.518;7.318;2022-08-07T14:23:59;101359.97;;;32.47;24.30
3917;BME280;1973;50.518;7.318;2022-08-07T14:26:43;101350.00;;;32.53;23.64
3917;BME280;1973;50.518;7.318;2022-08-07T14:29:39;101354.97;;;32.65;24.24
3917;BME280;1973;50.518;7.318;2022-08-07T14:32:27;101357.84;;;32.56;24.21
3917;BME280;1973;50.518;7.318;2022-08-07T14:34:56;101350.09;;;32.65;24.34
3917;BME280;1973;50.518;7.318;2022-08-07T14:37:29;101345.47;;;32.73;24.25
3917;BME280;1973;50.518;7.318;2022-08-07T14:40:06;101351.47;;;32.92;23.98
3917;BME280;1973;50.518;7.318;2022-08-07T14:43:08;101346.34;;;33.18;23.26
3917;BME280;1973;50.518;7.318;2022-08-07T14:45:57;101335.50;;;33.36;23.65
3917;BME280;1973;50.518;7.318;2022-08-07T14:48:31;101332.06;;;33.55;23.58
3917;BME280;1973;50.518;7.318;2022-08-07T14:51:09;101331.72;;;33.68;23.18
3917;BME280;1973;50.518;7.318;2022-08-07T14:53:44;101329.31;;;33.70;23.19
3917;BME280;1973;50.518;7.318;2022-08-07T14:56:31;101333.44;;;33.97;23.56
3917;BME280;1973;50.518;7.318;2022-08-07T14:59:02;101319.47;;;34.08;23.11
3917;BME280;1973;50.518;7.318;2022-08-07T15:01:50;101327.34;;;34.11;22.94
3917;BME280;1973;50.518;7.318;2022-08-07T15:04:17;101328.91;;;33.96;22.65
3917;BME280;1973;50.518;7.318;2022-08-07T15:06:50;101316.38;;;34.13;23.13
3917;BME280;1973;50.518;7.318;2022-08-07T15:09:18;101310.66;;;34.25;23.09
3917;BME280;1973;50.518;7.318;2022-08-07T15:12:09;101318.94;;;34.30;21.97
3917;BME280;1973;50.518;7.318;2022-08-07T15:15:08;101316.56;;;34.32;22.18
3917;BME280;1973;50.518;7.318;2022-08-07T15:17:53;101307.50;;;34.30;21.92
3917;BME280;1973;50.518;7.318;2022-08-07T15:20:25;101321.03;;;34.17;21.84
3917;BME280;1973;50.518;7.318;2022-08-07T15:23:20;101314.25;;;34.22;22.34
3917;BME280;1973;50.518;7.318;2022-08-07T15:26:08;101307.38;;;34.39;22.61
3917;BME280;1973;50.518;7.318;2022-08-07T15:28:46;101306.91;;;34.37;22.26
3917;BME280;1973;50.518;7.318;2022-08-07T15:31:38;101306.19;;;34.40;21.80
3917;BME280;1973;50.518;7.318;2022-08-07T15:34:25;101309.44;;;34.54;22.13
3917;BME280;1973;50.518;7.318;2022-08-07T15:36:53;101309.41;;;34.66;21.87
3917;BME280;1973;50.518;7.318;2022-08-07T15:39:48;101307.56;;;34.89;22.10
3917;BME280;1973;50.518;7.318;2022-08-07T15:45:15;101301.06;;;35.20;21.76
3917;BME280;1973;50.518;7.318;2022-08-07T15:50:40;101295.44;;;35.74;21.19
3917;BME280;1973;50.518;7.318;2022-08-07T15:53:32;101296.69;;;35.92;20.66
3917;BME280;1973;50.518;7.318;2022-08-07T15:56:20;101286.19;;;36.16;20.95
3917;BME280;1973;50.518;7.318;2022-08-07T15:58:56;101288.22;;;36.34;20.40